Terminal Aerodrome Forecast
Issued by NWS Brownsville, TX

Home | Current Version | Previous Version | Text Only | Print | Product List | Glossary On
Versions: 1 2 3 4 5 6 7 8 9 10 11 12 13 14 15
000
FTUS44 KBRO 201700
TAFBRO
TAF
KBRO 201733Z 2018/2118 15017G24KT P6SM SCT040
     FM210300 14012G18KT P6SM SKC
     FM210800 15010KT P6SM FEW025
     FM211400 16017G25KT P6SM SCT040 SCT250=

USA.gov is the U.S. government's official web portal to all federal, state and local government web resources and services.